Flight Track Log - Related Links

Times and Time Zones

All times are in EDT time to prevent confusion due to time zone crossing. See the N53442 flight status page for this flight to view local times or setup timezone preferences in your user account.

Time Position Orientation Groundspeed Altitude Reporting Facility
EDT Latitude Longitude Course Direction KTS MPH feet Rate Location/Type
Tue 09:18:08 AM 29.9509 -95.3388 177° South 183 211 1,100  Level FlightAware ADS-B
Tue 09:18:12 AM 29.9473 -95.3394 188° South 183 211 1,300 1,500 Climbing FlightAware ADS-B
Tue 09:18:16 AM 29.9441 -95.3405 197° South 189 217 1,300 750 Level FlightAware ADS-B
Tue 09:18:20 AM 29.9410 -95.3423 207° Southwest 195 224 1,400 1,714 Climbing FlightAware ADS-B
Tue 09:18:23 AM 29.9387 -95.3443 217° Southwest 200 230 1,500 1,500 Climbing FlightAware ADS-B
Tue 09:18:28 AM 29.9356 -95.3481 227° Southwest 205 236 1,600 1,000 Climbing FlightAware ADS-B
Tue 09:18:35 AM 29.9324 -95.3553 243° Southwest 214 246 1,700 1,200 Climbing FlightAware ADS-B
Tue 09:18:43 AM 29.9309 -95.3646 259° West 230 265 1,900 1,500 Climbing FlightAware ADS-B
Tue 09:18:47 AM 29.9311 -95.3693 273° West 236 272 2,000 2,769 Climbing FlightAware ADS-B
Tue 09:18:56 AM 29.9322 -95.3804 277° West 237 273 2,500 3,000 Climbing FlightAware ADS-B
Tue 09:19:11 AM 29.9341 -95.4000 276° West 242 278 3,200 2,250 Climbing FlightAware ADS-B
Tue 09:19:28 AM 29.9364 -95.4219 277° West 256 295 3,700 1,714 Climbing FlightAware ADS-B
Tue 09:19:39 AM 29.9381 -95.4367 278° West 259 298 4,000 2,700 Climbing FlightAware ADS-B
Tue 09:19:48 AM 29.9403 -95.4489 282° West 253 291 4,600 2,634 Climbing FlightAware ADS-B
Tue 09:20:20 AM 29.9495 -95.4932 284° West 275 316 5,800 2,375 Climbing FlightAware ADS-B
Tue 09:20:36 AM 29.9543 -95.5167 283° West 280 322 6,500 2,727 Climbing FlightAware ADS-B
Tue 09:20:53 AM 29.9595 -95.5411 284° West 283 326 7,300 2,681 Climbing FlightAware ADS-B
Tue 09:21:23 AM 29.9693 -95.5857 284° West 294 338 8,600 2,667 Climbing FlightAware ADS-B
Tue 09:21:38 AM 29.9743 -95.6087 284° West 297 342 9,300 2,800 Climbing FlightAware ADS-B
Tue 09:21:53 AM 29.9793 -95.6327 284° West 297 342 10,000 1,868 Climbing FlightAware ADS-B
Tue 09:23:24 AM 30.0134 -95.7929 284° West 361 415 12,600 1,869 Climbing FlightAware ADS-B
Tue 09:23:55 AM 30.0256 -95.8502 284° West 367 422 13,800 2,361 Climbing FlightAware ADS-B
Tue 09:24:25 AM 30.0382 -95.9093 284° West 372 428 15,000 2,262 Climbing FlightAware ADS-B
Tue 09:24:56 AM 30.0506 -95.9680 284° West 379 436 16,100 1,967 Climbing FlightAware ADS-B
Tue 09:25:26 AM 30.0634 -96.0289 284° West 390 449 17,000 1,778 Climbing FlightAware ADS-B
Tue 09:26:44 AM 30.0907 -96.1930 280° West 410 472 19,300 1,817 Climbing FlightAware ADS-B
Tue 09:27:15 AM 30.1009 -96.2596 280° West 415 478 20,300 1,839 Climbing FlightAware ADS-B
Tue 09:27:46 AM 30.1114 -96.3279 280° West 420 483 21,200 1,645 Climbing FlightAware ADS-B
Tue 09:28:17 AM 30.1218 -96.3956 280° West 426 490 22,000 1,574 Climbing FlightAware ADS-B
Tue 09:28:47 AM 30.1322 -96.4640 280° West 429 494 22,800 1,377 Climbing FlightAware ADS-B
Tue 09:29:18 AM 30.1430 -96.5347 280° West 438 504 23,400 1,385 Climbing FlightAware ADS-B
Tue 09:30:18 AM 30.1642 -96.6753 280° West 446 513 24,900 1,438 Climbing FlightAware ADS-B
Tue 09:31:19 AM 30.1859 -96.8197 280° West 454 522 26,300 1,239 Climbing FlightAware ADS-B
Tue 09:31:50 AM 30.1968 -96.8933 280° West 459 528 26,800 1,065 Climbing FlightAware ADS-B
Tue 09:32:21 AM 30.2081 -96.9689 280° West 465 535 27,400 1,048 Climbing FlightAware ADS-B
Tue 09:32:53 AM 30.2195 -97.0467 280° West 471 542 27,900 1,048 Climbing FlightAware ADS-B
Tue 09:33:24 AM 30.2307 -97.1233 280° West 475 547 28,500 1,082 Climbing FlightAware ADS-B
Tue 09:33:54 AM 30.2421 -97.2007 280° West 479 551 29,000 1,048 Climbing FlightAware ADS-B
Tue 09:34:27 AM 30.2541 -97.2834 280° West 481 554 29,600 1,125 Climbing FlightAware ADS-B
Tue 09:34:58 AM 30.2653 -97.3608 280° West 483 556 30,200 1,050 Climbing FlightAware ADS-B
Tue 09:35:07 AM 30.2686 -97.3837 279° West 483 556 30,300 1,355 Climbing FlightAware ADS-B
Tue 09:35:29 AM 30.2768 -97.4408 279° West 481 554 30,900 1,472 Climbing FlightAware ADS-B
Tue 09:36:00 AM 30.2882 -97.5194 280° West 477 549 31,600 1,247 Climbing FlightAware ADS-B
Tue 09:36:46 AM 30.3040 -97.6320 279° West 476 548 32,500 1,119 Climbing FlightAware ADS-B
Tue 09:36:59 AM 30.3090 -97.6655 280° West 477 549 32,700 1,125 Climbing FlightAware ADS-B
Tue 09:37:18 AM 30.3160 -97.7147 279° West 476 548 33,100 980 Climbing FlightAware ADS-B
Tue 09:37:48 AM 30.3265 -97.7888 279° West 476 548 33,500 774 Climbing FlightAware ADS-B
Tue 09:37:49 AM 30.3270 -97.7923 279° West 476 548 33,500 1,050 Level FlightAware ADS-B
Tue 09:38:28 AM 30.3407 -97.8894 279° West 476 548 34,200 957 Climbing FlightAware ADS-B
Tue 09:38:58 AM 30.3512 -97.9648 279° West 476 548 34,600 1,015 Climbing FlightAware ADS-B
Tue 09:39:33 AM 30.3635 -98.0525 279° West 473 544 35,300 1,099 Climbing FlightAware ADS-B
Tue 09:40:09 AM 30.3759 -98.1411 279° West 468 539 35,900 636 Climbing FlightAware ADS-B
Tue 09:40:39 AM 30.3864 -98.2167 279° West 469 540 36,000 98 Climbing FlightAware ADS-B
Tue 09:41:10 AM 30.3967 -98.2922 279° West 469 540 36,000  Level FlightAware ADS-B
Tue 09:41:46 AM 30.4091 -98.3830 279° West 470 541 36,000  Level FlightAware ADS-B
Tue 09:43:01 AM 30.4350 -98.5739 279° West 483 556 36,000  Level FlightAware ADS-B
Tue 09:43:39 AM 30.4470 -98.6680 278° West 483 556 36,000  Level FlightAware ADS-B
Tue 09:44:20 AM 30.4620 -98.7730 279° West 482 555 36,000  Level FlightAware ADS-B
Tue 09:45:03 AM 30.4760 -98.8850 278° West 483 556 36,000  Level FlightAware ADS-B
Tue 09:45:43 AM 30.4900 -98.9860 279° West 483 556 36,000  Level FlightAware ADS-B
Tue 09:46:21 AM 30.5030 -99.0840 279° West 480 552 36,000  Level FlightAware ADS-B
Tue 09:47:10 AM 30.5180 -99.2050 278° West 472 543 36,000  Level FlightAware ADS-B
Tue 09:47:46 AM 30.5290 -99.2900 279° West 469 540 36,000  Level FlightAware ADS-B
Tue 09:48:32 AM 30.5450 -99.4080 279° West 467 537 36,000  Level FlightAware ADS-B
Tue 09:49:16 AM 30.5590 -99.5160 279° West 464 534 36,000  Level FlightAware ADS-B
Tue 09:49:53 AM 30.5710 -99.6090 279° West 462 532 36,000  Level FlightAware ADS-B
Tue 09:50:40 AM 30.5850 -99.7190 278° West 460 529 36,000  Level FlightAware ADS-B
Tue 09:51:22 AM 30.5990 -99.8250 279° West 456 525 36,000  Level FlightAware ADS-B
Tue 09:52:03 AM 30.6220 -99.9220 285° West 456 525 36,000  Level FlightAware ADS-B
Tue 09:52:44 AM 30.6440 -100.0170 285° West 454 522 36,000  Level FlightAware ADS-B
Tue 09:53:23 AM 30.6660 -100.1080 286° West 453 521 36,000  Level FlightAware ADS-B
Tue 09:54:03 AM 30.6880 -100.2040 285° West 455 524 36,000  Level FlightAware ADS-B
Tue 09:54:44 AM 30.7100 -100.2990 285° West 455 524 36,000  Level FlightAware ADS-B
Tue 09:55:22 AM 30.7310 -100.3890 285° West 456 525 36,000  Level FlightAware ADS-B
Tue 09:55:56 AM 30.7500 -100.4680 286° West 457 526 36,000  Level FlightAware ADS-B
Tue 09:56:43 AM 30.7760 -100.5820 285° West 458 527 36,000  Level FlightAware ADS-B
Tue 09:57:23 AM 30.7980 -100.6770 285° West 459 528 36,000  Level FlightAware ADS-B
Tue 09:58:07 AM 30.8210 -100.7780 285° West 459 528 36,000  Level FlightAware ADS-B
Tue 09:58:49 AM 30.8440 -100.8780 285° West 463 533 36,000  Level FlightAware ADS-B
Tue 09:59:23 AM 30.8640 -100.9660 285° West 470 541 36,000  Level FlightAware ADS-B
Tue 10:00:13 AM 30.8920 -101.0890 285° West 473 544 36,000  Level FlightAware ADS-B
Tue 10:00:46 AM 30.9100 -101.1680 285° West 474 545 36,000  Level FlightAware ADS-B
Tue 10:01:29 AM 30.9340 -101.2750 285° West 475 547 36,000  Level FlightAware ADS-B
Tue 10:02:13 AM 30.9590 -101.3850 285° West 475 547 36,000  Level FlightAware ADS-B
Tue 10:02:45 AM 30.9760 -101.4630 284° West 475 547 36,000  Level FlightAware ADS-B
Tue 10:03:27 AM 30.9990 -101.5670 284° West 476 548 36,000  Level FlightAware ADS-B
Tue 10:04:07 AM 31.0210 -101.6650 285° West 477 549 36,000  Level FlightAware ADS-B
Tue 10:04:49 AM 31.0440 -101.7700 284° West 476 548 36,000  Level FlightAware ADS-B
Tue 10:05:35 AM 31.0690 -101.8810 285° West 478 550 36,000  Level FlightAware ADS-B
Tue 10:06:17 AM 31.0920 -101.9890 284° West 477 549 36,000  Level FlightAware ADS-B
Tue 10:06:57 AM 31.1150 -102.0900 285° West 478 550 36,000  Level FlightAware ADS-B
Tue 10:07:39 AM 31.1390 -102.1940 285° West 478 550 36,000  Level FlightAware ADS-B
Tue 10:08:23 AM 31.1620 -102.3020 284° West 479 551 36,000  Level FlightAware ADS-B
Tue 10:08:59 AM 31.1820 -102.3920 285° West 481 554 36,000  Level FlightAware ADS-B
Tue 10:09:49 AM 31.2030 -102.5000 283° West 481 554 36,000  Level FlightAware ADS-B
Tue 10:10:27 AM 31.2190 -102.5820 283° West 481 554 36,000  Level FlightAware ADS-B
Tue 10:11:04 AM 31.2350 -102.6620 283° West 481 554 36,000  Level FlightAware ADS-B
Tue 10:11:51 AM 31.2550 -102.7630 283° West 481 554 36,000  Level FlightAware ADS-B
Tue 10:12:28 AM 31.2710 -102.8430 283° West 481 554 36,000  Level FlightAware ADS-B
Tue 10:13:17 AM 31.2920 -102.9480 283° West 481 554 36,000  Level FlightAware ADS-B
Tue 10:13:54 AM 31.3070 -103.0280 282° West 481 554 36,000  Level FlightAware ADS-B
Tue 10:14:30 AM 31.3230 -103.1060 284° West 481 554 36,000  Level FlightAware ADS-B
Tue 10:15:30 AM 31.3480 -103.2350 283° West 481 554 36,000  Level FlightAware ADS-B
Tue 10:16:06 AM 31.3630 -103.3130 283° West 481 554 36,000  Level FlightAware ADS-B
Tue 10:16:43 AM 31.3790 -103.3930 283° West 481 554 36,000  Level FlightAware ADS-B
Tue 10:17:31 AM 31.4000 -103.4970 283° West 481 554 36,000  Level FlightAware ADS-B
Tue 10:18:08 AM 31.4150 -103.5770 282° West 481 554 36,000  Level FlightAware ADS-B
Tue 10:18:45 AM 31.4310 -103.6560 283° West 481 554 36,000  Level FlightAware ADS-B
Tue 10:22:15 AM 31.5990 -104.4130 285° West 484 557 36,000  Level FlightAware ADS-B
Tue 10:22:55 AM 31.6180 -104.5120 283° West 483 556 36,000  Level FlightAware ADS-B
Tue 10:23:38 AM 31.6390 -104.6170 283° West 481 554 36,000  Level FlightAware ADS-B
Tue 10:24:24 AM 31.6630 -104.7420 283° West 480 552 36,000  Level FlightAware ADS-B
Tue 10:25:11 AM 31.6840 -104.8530 283° West 479 551 36,000  Level FlightAware ADS-B
Tue 10:26:01 AM 31.7040 -104.9610 282° West 479 551 36,000  Level FlightAware ADS-B
Tue 10:26:54 AM 31.7340 -105.1100 283° West 479 551 36,000  Level FlightAware ADS-B
Tue 10:27:32 AM 31.7490 -105.1920 282° West 479 551 36,000  Level FlightAware ADS-B
Tue 10:28:21 AM 31.7680 -105.2980 282° West 479 551 36,000  Level FlightAware ADS-B
Tue 10:28:58 AM 31.7820 -105.3780 282° West 479 551 36,000  Level FlightAware ADS-B
Tue 10:29:42 AM 31.8000 -105.4740 282° West 479 551 36,000  Level FlightAware ADS-B
Tue 10:29:54 AM 31.8040 -105.5000 280° West 479 551 36,000  Level FlightAware ADS-B
Tue 10:31:02 AM 31.8310 -105.6470 282° West 479 551 36,000  Level FlightAware ADS-B
Tue 10:31:57 AM 31.8520 -105.7670 282° West 479 551 36,000  Level FlightAware ADS-B
Tue 10:32:44 AM 31.9030 -106.0050 284° West 476 548 36,000  Level FlightAware ADS-B
Tue 10:33:29 AM 31.9240 -106.1200 282° West 474 545 36,000  Level FlightAware ADS-B
Tue 10:34:09 AM 31.9420 -106.2200 282° West 474 545 36,000  Level FlightAware ADS-B
Tue 10:34:44 AM 31.9600 -106.3040 284° West 473 544 36,000  Level FlightAware ADS-B
Tue 10:35:29 AM 31.9870 -106.4180 286° West 473 544 36,000  Level FlightAware ADS-B
Tue 10:36:09 AM 32.0110 -106.5170 286° West 473 544 36,000  Level FlightAware ADS-B
Tue 10:36:44 AM 32.0330 -106.6040 287° West 473 544 36,000  Level FlightAware ADS-B
Tue 10:37:25 AM 32.0570 -106.7020 286° West 472 543 36,000  Level FlightAware ADS-B
Tue 10:38:09 AM 32.0840 -106.8130 286° West 470 541 36,000  Level FlightAware ADS-B
Tue 10:38:44 AM 32.1050 -106.8980 286° West 470 541 36,000  Level FlightAware ADS-B
Tue 10:39:29 AM 32.1320 -107.0080 286° West 469 540 36,000  Level FlightAware ADS-B
Tue 10:40:13 AM 32.1590 -107.1190 286° West 468 539 36,000  Level FlightAware ADS-B
Tue 10:40:54 AM 32.1810 -107.2090 286° West 468 539 36,000  Level FlightAware ADS-B
Tue 10:41:30 AM 32.1990 -107.2850 286° West 468 539 36,000  Level FlightAware ADS-B
Tue 10:42:07 AM 32.2180 -107.3620 286° West 468 539 36,000  Level FlightAware ADS-B
Tue 10:43:12 AM 32.2510 -107.4980 286° West 468 539 36,000  Level FlightAware ADS-B
Tue 10:43:50 AM 32.2700 -107.5770 286° West 468 539 36,000  Level FlightAware ADS-B
Tue 10:44:27 AM 32.2890 -107.6550 286° West 468 539 36,000  Level FlightAware ADS-B
Tue 10:45:14 AM 32.3120 -107.7530 286° West 468 539 36,000  Level FlightAware ADS-B
Tue 10:45:50 AM 32.3310 -107.8290 287° West 468 539 36,000  Level FlightAware ADS-B
Tue 10:46:50 AM 32.3610 -107.9540 286° West 468 539 36,000  Level FlightAware ADS-B
Tue 10:47:25 AM 32.3790 -108.0280 286° West 468 539 36,000  Level FlightAware ADS-B
Tue 10:48:19 AM 32.4430 -108.2850 287° West 465 535 36,000  Level FlightAware ADS-B
Tue 10:49:11 AM 32.4780 -108.4290 286° West 466 536 36,000  Level FlightAware ADS-B
Tue 10:49:57 AM 32.5060 -108.5440 286° West 466 536 36,000  Level FlightAware ADS-B
Tue 10:50:33 AM 32.5270 -108.6330 286° West 466 536 36,000  Level FlightAware ADS-B
Tue 10:51:13 AM 32.5510 -108.7330 286° West 466 536 36,000  Level FlightAware ADS-B
Tue 10:51:53 AM 32.5740 -108.8300 286° West 466 536 36,000  Level FlightAware ADS-B
Tue 10:52:33 AM 32.5970 -108.9260 286° West 465 535 36,000  Level FlightAware ADS-B
Tue 10:53:19 AM 32.6250 -109.0410 286° West 464 534 36,000  Level FlightAware ADS-B
Tue 10:54:03 AM 32.6500 -109.1480 286° West 463 533 36,000  Level FlightAware ADS-B
Tue 10:54:45 AM 32.6740 -109.2520 285° West 461 531 36,000  Level FlightAware ADS-B
Tue 10:55:21 AM 32.6940 -109.3370 286° West 460 529 36,000  Level FlightAware ADS-B
Tue 10:56:01 AM 32.7170 -109.4360 285° West 459 528 36,000  Level FlightAware ADS-B
Tue 10:56:41 AM 32.7390 -109.5320 285° West 459 528 36,000  Level FlightAware ADS-B
Tue 10:57:21 AM 32.7620 -109.6290 286° West 459 528 36,000  Level FlightAware ADS-B
Tue 10:58:07 AM 32.7880 -109.7400 286° West 459 528 36,000  Level FlightAware ADS-B
Tue 10:58:49 AM 32.8110 -109.8430 285° West 458 527 36,000  Level FlightAware ADS-B
Tue 10:59:31 AM 32.8350 -109.9460 286° West 458 527 36,000  Level FlightAware ADS-B
Tue 11:00:11 AM 32.8570 -110.0430 285° West 457 526 36,000  Level FlightAware ADS-B
Tue 11:00:47 AM 32.8760 -110.1300 285° West 456 525 36,000  Level FlightAware ADS-B
Tue 11:01:28 AM 32.8980 -110.2270 285° West 455 524 36,000  Level FlightAware ADS-B
Tue 11:02:09 AM 32.9210 -110.3270 285° West 453 521 36,000  Level FlightAware ADS-B
Tue 11:02:47 AM 32.9410 -110.4190 285° West 451 519 36,000  Level FlightAware ADS-B
Tue 11:03:28 AM 32.9630 -110.5150 285° West 449 517 36,000  Level FlightAware ADS-B
Tue 11:04:10 AM 32.9860 -110.6170 285° West 448 516 36,000  Level FlightAware ADS-B
Tue 11:04:50 AM 33.0070 -110.7120 285° West 450 518 36,000  Level FlightAware ADS-B
Tue 11:05:34 AM 33.0300 -110.8180 285° West 452 520 36,000  Level FlightAware ADS-B
Tue 11:06:12 AM 33.0500 -110.9090 285° West 452 520 36,000  Level FlightAware ADS-B
Tue 11:06:58 AM 33.0740 -111.0190 285° West 451 519 36,000  Level FlightAware ADS-B
Tue 11:07:30 AM 33.0910 -111.0970 285° West 453 521 36,000  Level FlightAware ADS-B
Tue 11:08:14 AM 33.1140 -111.2040 284° West 454 522 36,000  Level FlightAware ADS-B
Tue 11:08:56 AM 33.1360 -111.3050 285° West 453 521 36,000  Level FlightAware ADS-B
Tue 11:09:32 AM 33.1550 -111.3920 285° West 453 521 36,000  Level FlightAware ADS-B
Tue 11:10:15 AM 33.1770 -111.4950 284° West 452 520 36,000  Level FlightAware ADS-B
Tue 11:10:59 AM 33.2000 -111.6010 285° West 452 520 36,000  Level FlightAware ADS-B
Tue 11:11:45 AM 33.2240 -111.7140 284° West 453 521 36,000  Level FlightAware ADS-B
Tue 11:12:29 AM 33.2460 -111.8200 284° West 454 522 36,000  Level FlightAware ADS-B
Tue 11:12:53 AM 33.2590 -111.8800 285° West 455 524 36,000  Level FlightAware ADS-B
Tue 11:13:29 AM 33.2770 -111.9650 284° West 456 525 36,000  Level FlightAware ADS-B
Tue 11:14:13 AM 33.2990 -112.0750 283° West 457 526 36,000  Level FlightAware ADS-B
Tue 11:14:58 AM 33.3220 -112.1820 284° West 459 528 36,000  Level FlightAware ADS-B
Tue 11:15:39 AM 33.3430 -112.2870 283° West 460 529 36,000  Level FlightAware ADS-B
Tue 11:16:17 AM 33.3630 -112.3790 285° West 461 531 36,000  Level FlightAware ADS-B
Tue 11:16:59 AM 33.3840 -112.4830 284° West 462 532 36,000  Level FlightAware ADS-B
Tue 11:17:43 AM 33.4060 -112.5930 284° West 463 533 36,000  Level FlightAware ADS-B
Tue 11:18:24 AM 33.4270 -112.6950 284° West 464 534 36,000  Level FlightAware ADS-B
Tue 11:19:02 AM 33.4460 -112.7900 284° West 463 533 36,000  Level FlightAware ADS-B
Tue 11:19:42 AM 33.4750 -112.8840 290° West 463 533 36,000  Level FlightAware ADS-B
Tue 11:20:22 AM 33.5080 -112.9770 293° West 461 531 36,000  Level FlightAware ADS-B
Tue 11:21:00 AM 33.5400 -113.0670 293° West 461 531 36,000  Level FlightAware ADS-B
Tue 11:21:44 AM 33.5770 -113.1710 293° West 461 531 36,000  Level FlightAware ADS-B
Tue 11:22:21 AM 33.6080 -113.2560 294° West 461 531 36,000  Level FlightAware ADS-B
Tue 11:22:56 AM 33.6370 -113.3410 292° West 461 531 36,000  Level FlightAware ADS-B
Tue 11:23:42 AM 33.6760 -113.4500 293° West 462 532 36,000  Level FlightAware ADS-B
Tue 11:24:23 AM 33.7090 -113.5450 293° West 461 531 36,000  Level FlightAware ADS-B
Tue 11:25:04 AM 33.7440 -113.6430 293° West 460 529 36,000  Level FlightAware ADS-B
Tue 11:25:47 AM 33.7780 -113.7410 293° West 459 528 36,000  Level FlightAware ADS-B
Tue 11:26:30 AM 33.8140 -113.8440 293° West 458 527 36,000  Level FlightAware ADS-B
Tue 11:27:12 AM 33.8480 -113.9410 293° West 456 525 36,000  Level FlightAware ADS-B
Tue 11:27:52 AM 33.8800 -114.0340 293° West 455 524 36,000  Level FlightAware ADS-B
Tue 11:28:49 AM 33.9220 -114.1580 292° West 454 522 36,000  Level FlightAware ADS-B
Tue 11:29:32 AM 33.9600 -114.2670 293° West 451 519 36,000  Level FlightAware ADS-B
Tue 11:30:12 AM 33.9910 -114.3560 293° West 450 518 36,000  Level FlightAware ADS-B
Tue 11:32:06 AM 34.0680 -114.5870 292° West 450 518 36,000  Level FlightAware ADS-B
Tue 11:32:41 AM 34.0910 -114.6560 292° West 450 518 36,000  Level FlightAware ADS-B
Tue 11:33:26 AM 34.1210 -114.7450 292° West 450 518 36,000  Level FlightAware ADS-B
Tue 11:34:12 AM 34.1520 -114.8370 292° West 450 518 36,000  Level FlightAware ADS-B
Tue 11:34:49 AM 34.1760 -114.9100 292° West 450 518 36,000  Level FlightAware ADS-B
Tue 11:35:28 AM 34.2020 -114.9870 292° West 450 518 36,000  Level FlightAware ADS-B
Tue 11:36:04 AM 34.2260 -115.0590 292° West 450 518 36,000  Level FlightAware ADS-B
Tue 11:36:39 AM 34.1090 -115.2840 238° Southwest 439 505 36,000  Level FlightAware ADS-B
Tue 11:37:11 AM 34.1090 -115.3640 270° West 439 505 36,000  Level FlightAware ADS-B
Tue 11:37:52 AM 34.1100 -115.4580 271° West 440 506 36,000  Level FlightAware ADS-B
Tue 11:38:35 AM 34.1110 -115.5650 271° West 441 507 36,000  Level FlightAware ADS-B
Tue 11:39:21 AM 34.1120 -115.6780 271° West 442 509 36,000  Level FlightAware ADS-B
Tue 11:40:02 AM 34.1100 -115.7780 269° West 440 506 36,000  Level FlightAware ADS-B
Tue 11:40:43 AM 34.0960 -115.8810 261° West 437 503 36,000  Level FlightAware ADS-B
Tue 11:41:23 AM 34.0820 -115.9760 260° West 438 504 36,000 -711 Level FlightAware ADS-B
Tue 11:41:59 AM 34.0690 -116.0600 259° West 438 504 35,100 -2,351 Descending FlightAware ADS-B
Tue 11:42:37 AM 34.0550 -116.1540 260° West 447 514 33,100 -3,143 Descending FlightAware ADS-B
Tue 11:43:23 AM 34.0380 -116.2680 260° West 456 525 30,700 -2,800 Descending FlightAware ADS-B
Tue 11:44:07 AM 34.0220 -116.3790 260° West 448 516 28,900 -2,400 Descending FlightAware ADS-B
Tue 11:44:43 AM 34.0090 -116.4620 259° West 440 506 27,500 -2,415 Descending FlightAware ADS-B
Tue 11:45:29 AM 33.9980 -116.5770 263° West 431 496 25,600 -2,400 Descending FlightAware ADS-B
Tue 11:46:13 AM 33.9900 -116.6820 265° West 423 487 23,900 -2,302 Descending FlightAware ADS-B
Tue 11:46:55 AM 33.9820 -116.7750 264° West 415 478 22,300 -2,268 Descending FlightAware ADS-B
Tue 11:47:35 AM 33.9740 -116.8700 264° West 408 470 20,800 -2,241 Descending FlightAware ADS-B
Tue 11:48:18 AM 33.9670 -116.9630 265° West 397 457 19,200 -2,286 Descending FlightAware ADS-B
Tue 11:48:59 AM 33.9600 -117.0520 265° West 374 430 17,600 -1,630 Descending FlightAware ADS-B
Tue 11:49:39 AM 33.9530 -117.1330 264° West 360 414 17,000 -512 Descending FlightAware ADS-B
Tue 11:50:21 AM 33.9450 -117.2160 263° West 353 406 16,900 -1,091 Descending FlightAware ADS-B
Tue 11:51:07 AM 33.9380 -117.3020 264° West 346 398 15,400 -1,941 Descending FlightAware ADS-B
Tue 11:52:03 AM 33.9440 -117.4080 274° West 350 403 13,600 -1,915 Descending FlightAware ADS-B
Tue 11:52:41 AM 33.9680 -117.4770 293° West 345 397 12,400 -1,735 Descending FlightAware ADS-B
Tue 11:53:26 AM 33.9970 -117.5560 294° West 332 382 11,200 -1,286 Descending FlightAware ADS-B
Tue 11:54:05 AM 34.0120 -117.6220 285° West 302 348 10,600 -911 Descending FlightAware ADS-B
Tue 11:54:45 AM 34.0070 -117.6840 264° West 275 316 10,000 -1,000 Descending FlightAware ADS-B
Tue 11:55:17 AM 34.0020 -117.7330 263° West 270 311 9,400 -1,220 Descending FlightAware ADS-B
Tue 11:55:44 AM 33.9980 -117.7730 263° West 275 316 8,800 -1,395 Descending FlightAware ADS-B
Tue 11:56:00 AM 33.9950 -117.7980 262° West 278 320 8,400 -1,350 Descending FlightAware ADS-B
Tue 11:56:24 AM 33.9920 -117.8340 264° West 276 318 7,900 -1,322 Descending FlightAware ADS-B
Tue 11:56:59 AM 33.9870 -117.8860 263° West 263 303 7,100 -1,217 Descending FlightAware ADS-B
Tue 11:57:33 AM 33.9820 -117.9360 263° West 244 281 6,500 -1,000 Descending FlightAware ADS-B
Tue 11:57:41 AM 33.9810 -117.9470 264° West 239 275 6,400 -750 Descending FlightAware ADS-B
Tue 11:58:13 AM 33.9770 -117.9870 263° West 222 255 6,000 -800 Descending FlightAware ADS-B
Tue 11:58:41 AM 33.9730 -118.0210 262° West 219 252 5,600 -857 Descending FlightAware ADS-B
Tue 11:58:55 AM 33.9720 -118.0390 266° West 220 253 5,400 -833 Descending FlightAware ADS-B
Tue 11:59:17 AM 33.9690 -118.0660 262° West 222 255 5,100 -947 Descending FlightAware ADS-B
Tue 11:59:52 AM 33.9650 -118.1070 263° West 222 255 4,500 -1,048 Descending FlightAware ADS-B
Tue 12:01:23 PM 33.9550 -118.2070 263° West 223 257 2,900 -1,160 Descending FlightAware ADS-B
Tue 12:01:51 PM 33.9510 -118.2510 264° West 219 252 2,200 -1,300 Descending FlightAware ADS-B
Tue 12:02:23 PM 33.9470 -118.2860 262° West 200 230 1,600 -1,082 Descending FlightAware ADS-B
Tue 12:02:52 PM 33.9440 -118.3200 264° West 168 193 1,100 -1,019 Descending FlightAware ADS-B
Tue 12:03:16 PM 33.9420 -118.3410 263° West 152 175 700 -840 Descending FlightAware ADS-B
Tue 12:03:42 PM 33.9390 -118.3630 261° West 150 173 400 -411 Descending FlightAware ADS-B
Tue 12:04:29 PM 33.9360 -118.3970 264° West 147 169 200 -255 Descending FlightAware ADS-B

Login

Don't have an account? Register now (free) for customized features, flight alerts, and more!